createdAt,value
2017-09-30T10:38:03.076Z,7340
2017-09-30T10:39:25.659Z,6556
2017-09-30T10:40:47.515Z,5784
2017-09-30T10:42:09.044Z,5404
2017-09-30T10:43:31.224Z,5248
2017-09-30T10:44:53.405Z,5368
2017-09-30T10:46:15.615Z,5340
2017-09-30T10:47:37.765Z,5368
2017-09-30T10:49:00.265Z,5176
2017-09-30T10:50:22.112Z,4848
2017-09-30T10:51:44.044Z,4796
2017-09-30T10:53:06.190Z,5020
2017-09-30T10:54:28.344Z,5436
2017-09-30T10:55:50.501Z,6252
2017-09-30T10:57:13.072Z,7712
2017-09-30T10:58:34.902Z,8572
2017-09-30T10:59:57.128Z,9068
2017-09-30T11:01:19.386Z,9832
2017-09-30T11:02:41.543Z,10532
2017-09-30T11:04:03.737Z,11264
2017-09-30T11:05:26.504Z,12340
2017-09-30T11:06:48.726Z,13392
2017-09-30T11:08:10.936Z,13796
2017-09-30T11:09:32.834Z,13748
2017-09-30T11:10:55.264Z,12860
2017-09-30T11:12:17.793Z,11200
2017-09-30T11:13:39.957Z,9576
2017-09-30T11:15:02.444Z,9044
2017-09-30T11:16:25.825Z,8772
2017-09-30T11:17:51.683Z,8436
2017-09-30T11:19:15.296Z,7480
2017-09-30T11:20:42.174Z,7108
2017-09-30T11:22:07.667Z,7184
2017-09-30T11:23:31.708Z,7520
2017-09-30T11:24:58.201Z,8356
2017-09-30T11:26:23.031Z,8408
2017-09-30T11:27:49.449Z,8800
2017-09-30T11:29:13.385Z,8792
2017-09-30T11:30:37.451Z,9132
2017-09-30T11:32:01.991Z,8672
2017-09-30T11:33:26.132Z,10016
2017-09-30T11:34:50.121Z,9376
2017-09-30T11:36:13.852Z,8808
2017-09-30T11:37:37.909Z,8160
2017-09-30T11:39:01.976Z,6516
2017-09-30T11:40:26.434Z,7576
2017-09-30T11:41:51.316Z,9360
2017-09-30T11:43:15.814Z,8324
2017-09-30T11:44:40.752Z,8724
2017-09-30T11:46:05.536Z,8760
2017-09-30T11:47:29.466Z,10148
2017-09-30T11:48:53.948Z,9508
2017-09-30T11:50:18.542Z,8460
2017-09-30T11:51:43.333Z,8044
2017-09-30T11:53:07.403Z,9548
2017-09-30T11:54:30.508Z,11068
2017-09-30T11:55:55.545Z,11404
2017-09-30T11:57:19.340Z,11460
2017-09-30T11:58:43.512Z,10996
2017-09-30T12:00:07.639Z,10004
2017-09-30T12:01:30.993Z,9020
2017-09-30T12:02:55.547Z,8436
2017-09-30T12:04:19.156Z,7884
2017-09-30T12:05:43.082Z,7212
2017-09-30T12:07:07.774Z,6628
2017-09-30T12:08:32.834Z,6008
2017-09-30T12:09:56.316Z,5540
2017-09-30T12:11:20.364Z,5120
2017-09-30T12:12:44.099Z,5308
2017-09-30T12:14:08.128Z,6100
2017-09-30T12:15:31.187Z,6308
2017-09-30T12:16:55.500Z,6416
2017-09-30T12:18:20.505Z,6460
2017-09-30T12:19:45.047Z,6364
2017-09-30T12:21:09.278Z,6476
2017-09-30T12:22:34.545Z,6676
2017-09-30T12:23:59.025Z,7036
2017-09-30T12:25:22.618Z,7492
2017-09-30T12:26:47.026Z,8392
2017-09-30T12:28:11.764Z,8676
2017-09-30T12:29:36.576Z,8268
2017-09-30T12:31:01.438Z,7696
2017-09-30T12:32:26.396Z,7576
2017-09-30T12:33:49.618Z,7640
2017-09-30T12:35:13.617Z,7560
2017-09-30T12:36:37.386Z,7592
2017-09-30T12:38:01.186Z,7732
2017-09-30T12:39:24.736Z,7404
2017-09-30T12:40:48.489Z,7008
2017-09-30T12:42:11.997Z,6596
2017-09-30T12:43:36.105Z,5856
2017-09-30T12:45:00.223Z,4996
2017-09-30T12:46:23.937Z,4232
2017-09-30T12:47:47.944Z,3840
2017-09-30T12:49:11.491Z,3348
2017-09-30T12:50:35.368Z,2872
2017-09-30T12:52:00.445Z,2820
2017-09-30T12:53:24.093Z,3564
2017-09-30T12:54:48.162Z,4168
2017-09-30T12:56:11.532Z,4168
2017-09-30T12:57:36.636Z,4088
2017-09-30T12:59:01.207Z,4184
2017-09-30T13:00:25.046Z,3936
2017-09-30T13:01:49.093Z,3920
2017-09-30T13:03:13.332Z,3492
2017-09-30T13:04:37.166Z,3164
2017-09-30T13:06:02.025Z,3644
2017-09-30T13:07:25.365Z,4788
2017-09-30T13:08:47.554Z,5296
2017-09-30T13:10:09.728Z,5292
2017-09-30T13:11:31.570Z,5136
2017-09-30T13:12:54.060Z,5000
2017-09-30T13:14:15.917Z,4996
2017-09-30T13:15:38.450Z,4880
2017-09-30T13:17:00.656Z,4804
2017-09-30T13:18:22.817Z,5064
2017-09-30T13:19:45.547Z,5228
2017-09-30T13:21:08.065Z,5312
2017-09-30T13:22:30.255Z,5292
2017-09-30T13:23:52.741Z,5244
2017-09-30T13:25:15.251Z,5164
2017-09-30T13:26:37.413Z,5096
2017-09-30T13:27:59.947Z,4908
2017-09-30T13:29:22.115Z,4864
2017-09-30T13:30:44.658Z,4948
2017-09-30T13:32:07.180Z,5216
2017-09-30T13:33:29.202Z,5592
2017-09-30T13:34:51.042Z,5844
2017-09-30T13:36:13.515Z,5732
2017-09-30T13:37:36.024Z,5908
2017-09-30T13:38:58.201Z,5852
2017-09-30T13:40:20.819Z,5980
2017-09-30T13:41:43.609Z,6044
2017-09-30T13:43:05.771Z,5768
2017-09-30T13:44:28.055Z,5252
2017-09-30T13:45:50.541Z,4604
2017-09-30T13:47:12.776Z,3956
2017-09-30T13:48:35.296Z,3408
2017-09-30T13:49:57.776Z,3036
2017-09-30T13:51:20.262Z,2680
2017-09-30T13:52:42.739Z,2472
2017-09-30T13:54:05.215Z,2456
2017-09-30T13:55:27.045Z,2508
2017-09-30T13:56:49.544Z,2612
2017-09-30T13:58:12.025Z,2612
2017-09-30T13:59:34.525Z,2596
2017-09-30T14:00:57.025Z,3064
2017-09-30T14:02:19.181Z,3400
2017-09-30T14:03:41.324Z,3860
2017-09-30T14:05:03.143Z,2744
2017-09-30T14:06:25.603Z,1952
2017-09-30T14:07:47.747Z,2088
2017-09-30T14:09:10.268Z,2508
2017-09-30T14:10:32.123Z,2916
2017-09-30T14:11:54.304Z,3176
2017-09-30T14:13:16.202Z,2928
2017-09-30T14:14:39.171Z,2440
2017-09-30T14:16:01.343Z,1452
2017-09-30T14:17:23.539Z,920
2017-09-30T14:18:46.015Z,852
2017-09-30T14:20:08.511Z,1088
2017-09-30T14:21:30.691Z,1460
2017-09-30T14:22:53.291Z,1676
2017-09-30T14:24:15.141Z,2588
2017-09-30T14:25:37.093Z,2904
2017-09-30T14:26:59.355Z,3300
2017-09-30T14:28:21.307Z,3528
2017-09-30T14:29:43.565Z,3980
2017-09-30T14:31:06.073Z,4452
2017-09-30T14:32:28.348Z,4244
2017-09-30T14:33:50.534Z,3220
2017-09-30T14:35:12.396Z,2632
2017-09-30T14:36:34.968Z,2228
2017-09-30T14:37:57.464Z,2148
2017-09-30T14:39:19.335Z,2028
2017-09-30T14:40:41.867Z,2480
2017-09-30T14:42:04.106Z,2788
2017-09-30T14:43:25.943Z,2668
2017-09-30T14:44:48.415Z,2684
2017-09-30T14:46:10.000Z,2524
2017-09-30T14:47:31.826Z,1920
2017-09-30T14:48:53.969Z,1644
2017-09-30T14:50:15.871Z,1500
2017-09-30T14:51:38.043Z,1376
2017-09-30T14:53:00.546Z,1116
2017-09-30T14:54:22.064Z,1016
2017-09-30T14:55:44.225Z,936
2017-09-30T14:57:06.068Z,1092
2017-09-30T14:58:28.237Z,688
2017-09-30T14:59:50.831Z,352
2017-09-30T15:01:13.429Z,372
2017-09-30T15:02:35.269Z,392
2017-09-30T15:03:57.800Z,364
2017-09-30T15:05:20.186Z,340
2017-09-30T15:06:42.657Z,344
2017-09-30T15:08:04.835Z,332
2017-09-30T15:09:27.019Z,332
2017-09-30T15:10:49.616Z,352
2017-09-30T15:12:11.804Z,392
2017-09-30T15:13:33.639Z,452
2017-09-30T15:14:56.091Z,520
2017-09-30T15:16:17.599Z,612
2017-09-30T15:17:40.206Z,716
2017-09-30T15:19:02.027Z,868
2017-09-30T15:20:24.894Z,1024
2017-09-30T15:21:47.382Z,1128
2017-09-30T15:23:09.318Z,1136
2017-09-30T15:24:31.155Z,900
2017-09-30T15:25:55.174Z,780
2017-09-30T15:27:17.670Z,900
2017-09-30T15:28:40.195Z,992
2017-09-30T15:30:02.361Z,872
2017-09-30T15:31:24.865Z,788
2017-09-30T15:32:47.331Z,992
2017-09-30T15:34:09.498Z,1344
2017-09-30T15:35:32.215Z,1416
2017-09-30T15:36:55.072Z,1288
2017-09-30T15:38:17.568Z,1320
2017-09-30T15:39:40.137Z,1488
2017-09-30T15:41:02.285Z,1652
2017-09-30T15:42:25.159Z,1716
2017-09-30T15:43:47.316Z,1704
2017-09-30T15:45:09.495Z,1568
2017-09-30T15:46:31.444Z,1396
2017-09-30T15:47:53.571Z,1340
2017-09-30T15:49:16.053Z,1364
2017-09-30T15:50:38.515Z,1392
2017-09-30T15:52:00.826Z,1300
2017-09-30T15:53:22.968Z,1160
2017-09-30T15:54:45.125Z,968
2017-09-30T15:56:07.295Z,796
2017-09-30T15:57:29.607Z,692
2017-09-30T15:58:51.784Z,620
2017-09-30T16:00:13.320Z,588
2017-09-30T16:01:35.486Z,592
2017-09-30T16:02:57.988Z,696
2017-09-30T16:04:20.544Z,812
2017-09-30T16:05:42.714Z,860
2017-09-30T16:07:04.876Z,892
2017-09-30T16:08:27.363Z,892
2017-09-30T16:09:49.281Z,836
2017-09-30T16:11:11.140Z,776
2017-09-30T16:12:32.973Z,708
2017-09-30T16:13:55.589Z,608
2017-09-30T16:15:18.071Z,548
2017-09-30T16:16:40.296Z,472
2017-09-30T16:18:02.485Z,432
2017-09-30T16:19:24.640Z,400
2017-09-30T16:20:46.807Z,328
2017-09-30T16:22:09.087Z,272
2017-09-30T16:23:30.913Z,224
2017-09-30T16:24:53.106Z,192
2017-09-30T16:26:15.640Z,188
2017-09-30T16:27:37.897Z,192
2017-09-30T16:29:00.562Z,168
2017-09-30T16:30:22.437Z,128
2017-09-30T16:31:44.595Z,84
2017-09-30T16:33:07.132Z,80
2017-09-30T16:34:28.336Z,76
2017-09-30T16:35:50.587Z,80
2017-09-30T16:37:12.885Z,92
2017-09-30T16:38:35.366Z,108
2017-09-30T16:39:57.865Z,116
2017-09-30T16:41:20.028Z,116
2017-09-30T16:42:42.192Z,104
2017-09-30T16:44:04.367Z,88
2017-09-30T16:45:26.635Z,60
2017-09-30T16:46:48.610Z,52
2017-09-30T16:48:11.108Z,76
2017-09-30T16:49:33.375Z,88
2017-09-30T16:50:55.657Z,52
2017-09-30T16:52:17.860Z,40
2017-09-30T16:53:40.348Z,56
2017-09-30T16:55:02.857Z,40
2017-09-30T16:56:25.026Z,28
2017-09-30T16:57:47.515Z,32
2017-09-30T16:59:10.018Z,36
2017-09-30T17:00:32.252Z,24
2017-09-30T17:01:53.927Z,20
2017-09-30T17:03:15.927Z,12
2017-09-30T17:04:52.476Z,8
2017-09-30T17:06:14.672Z,8
2017-09-30T17:07:36.329Z,4
2017-09-30T17:08:57.995Z,4
2017-09-30T17:10:19.969Z,8
2017-09-30T17:11:41.689Z,4
2017-09-30T17:13:03.688Z,4
2017-09-30T17:14:25.357Z,4
2017-09-30T17:15:47.393Z,4
2017-09-30T17:17:08.833Z,0
2017-09-30T17:18:30.506Z,4
2017-09-30T17:19:52.144Z,4
2017-09-30T17:21:14.131Z,4
2017-09-30T17:22:36.121Z,0
2017-09-30T17:23:58.126Z,0
2017-09-30T17:25:19.796Z,0
2017-09-30T17:26:42.496Z,0
2017-09-30T17:28:04.440Z,0
2017-09-30T17:29:29.265Z,16
2017-09-30T17:30:53.146Z,0
2017-09-30T17:32:15.344Z,0
2017-09-30T17:33:37.207Z,16
2017-09-30T17:34:59.225Z,0
2017-09-30T17:36:21.853Z,0
2017-09-30T17:37:44.055Z,0
2017-09-30T17:39:06.674Z,0
2017-09-30T17:40:28.946Z,0
2017-09-30T17:41:51.197Z,0
2017-09-30T17:43:13.714Z,0
2017-09-30T17:44:36.023Z,0
2017-09-30T17:45:58.706Z,0
2017-09-30T17:47:20.919Z,0
2017-09-30T17:48:43.095Z,0
2017-09-30T17:50:05.645Z,0
2017-09-30T17:51:28.156Z,0
2017-09-30T17:52:50.382Z,0
2017-09-30T17:54:11.607Z,0
2017-09-30T17:55:33.775Z,0
2017-09-30T17:56:56.271Z,0
2017-09-30T17:58:18.779Z,0
2017-09-30T17:59:40.120Z,0
2017-09-30T18:01:01.784Z,0
2017-09-30T18:02:23.456Z,0
2017-09-30T18:03:45.443Z,0
2017-09-30T18:05:07.463Z,0
2017-09-30T18:06:29.121Z,0
2017-09-30T18:07:51.248Z,0
2017-09-30T18:09:12.895Z,0
2017-09-30T18:10:34.898Z,0
2017-09-30T18:11:56.891Z,0
2017-09-30T18:13:18.245Z,0
2017-09-30T18:14:40.343Z,0
2017-09-30T18:16:02.682Z,0
2017-09-30T18:17:24.646Z,0
2017-09-30T18:18:46.668Z,0
2017-09-30T18:20:08.643Z,0
2017-09-30T18:21:30.944Z,0
2017-09-30T18:22:52.916Z,0
2017-09-30T18:24:14.273Z,0
2017-09-30T18:25:36.276Z,0
2017-09-30T18:26:58.614Z,0
2017-09-30T18:28:20.639Z,0
2017-09-30T18:29:42.280Z,0
2017-09-30T18:31:04.263Z,0
2017-09-30T18:32:25.881Z,0
2017-09-30T18:33:47.222Z,0
2017-09-30T18:35:09.320Z,0
2017-09-30T18:36:30.965Z,0
2017-09-30T18:37:52.985Z,0
2017-09-30T18:39:14.634Z,0
2017-09-30T18:40:36.293Z,0
2017-09-30T18:41:58.291Z,0
2017-09-30T18:43:20.286Z,0
2017-09-30T18:44:42.246Z,0
2017-09-30T18:46:03.948Z,0
2017-09-30T18:47:25.585Z,0
2017-09-30T18:48:47.237Z,0
2017-09-30T18:50:08.559Z,0
2017-09-30T18:51:30.615Z,0
2017-09-30T18:52:52.607Z,0
2017-09-30T18:54:14.587Z,0
2017-09-30T18:55:36.216Z,0
2017-09-30T18:56:58.239Z,0
2017-09-30T18:58:19.917Z,0
2017-09-30T18:59:41.628Z,0
2017-09-30T19:01:03.273Z,0
2017-09-30T19:02:24.596Z,0
2017-09-30T19:03:46.664Z,0
2017-09-30T19:05:08.676Z,0
2017-09-30T19:06:30.012Z,0
2017-09-30T19:07:51.981Z,0
2017-09-30T19:09:14.107Z,0
2017-09-30T19:10:35.757Z,0
2017-09-30T19:11:57.439Z,0
2017-09-30T19:13:19.079Z,0
2017-09-30T19:14:41.065Z,0
2017-09-30T19:16:02.497Z,0
2017-09-30T19:17:24.518Z,0
2017-09-30T19:18:46.166Z,0
2017-09-30T19:20:07.830Z,0
2017-09-30T19:21:29.486Z,0
2017-09-30T19:22:51.224Z,0
2017-09-30T19:24:13.225Z,0
2017-09-30T19:25:35.236Z,0
2017-09-30T19:26:57.233Z,0
2017-09-30T19:28:18.627Z,0
2017-09-30T19:29:40.702Z,0
2017-09-30T19:31:02.673Z,0
2017-09-30T19:32:24.698Z,0
2017-09-30T19:33:46.350Z,0
2017-09-30T19:35:08.326Z,0
2017-09-30T19:36:30.337Z,0
2017-09-30T19:37:52.358Z,0
2017-09-30T19:39:14.367Z,0
2017-09-30T19:40:36.459Z,0
2017-09-30T19:41:58.424Z,0
2017-09-30T19:43:20.078Z,0
2017-09-30T19:44:42.064Z,0
2017-09-30T19:46:03.743Z,0
2017-09-30T19:47:25.403Z,0
2017-09-30T19:48:47.415Z,0
2017-09-30T19:50:09.167Z,0
2017-09-30T19:51:31.147Z,0
2017-09-30T19:52:52.825Z,0
2017-09-30T19:54:14.868Z,0
2017-09-30T19:55:36.853Z,0
2017-09-30T19:56:58.206Z,0
2017-09-30T19:58:19.928Z,0
2017-09-30T19:59:40.956Z,0
2017-09-30T20:01:02.643Z,0
2017-09-30T20:02:24.680Z,0
2017-09-30T20:03:46.667Z,0
2017-09-30T20:05:08.716Z,0
2017-09-30T20:06:30.688Z,0
2017-09-30T20:07:52.342Z,0
2017-09-30T20:09:14.315Z,0
2017-09-30T20:10:36.677Z,0
2017-09-30T20:11:58.455Z,0
2017-09-30T20:13:20.416Z,0
2017-09-30T20:14:42.090Z,0
2017-09-30T20:16:04.116Z,0
2017-09-30T20:17:26.199Z,0
2017-09-30T20:18:48.297Z,16
2017-09-30T20:20:10.335Z,0
2017-09-30T20:21:32.706Z,0
2017-09-30T20:22:54.365Z,0
2017-09-30T20:24:15.756Z,0
2017-09-30T20:25:37.465Z,0
2017-09-30T20:26:59.861Z,0
2017-09-30T20:28:21.838Z,0
2017-09-30T20:29:43.484Z,0
2017-09-30T20:31:05.579Z,0
2017-09-30T20:32:27.593Z,0
2017-09-30T20:33:48.918Z,0
2017-09-30T20:35:10.941Z,0
2017-09-30T20:36:32.607Z,0
2017-09-30T20:37:54.828Z,0
2017-09-30T20:39:16.706Z,0
2017-09-30T20:40:38.562Z,0
2017-09-30T20:42:00.863Z,0
2017-09-30T20:43:22.736Z,0
2017-09-30T20:44:45.336Z,0
2017-09-30T20:46:07.517Z,0
2017-09-30T20:47:29.381Z,0
2017-09-30T20:48:51.716Z,0
2017-09-30T20:50:13.886Z,0
2017-09-30T20:51:36.054Z,0
2017-09-30T20:52:58.263Z,0
2017-09-30T20:54:20.807Z,0
2017-09-30T20:55:43.002Z,0
2017-09-30T20:57:05.528Z,0
2017-09-30T20:58:27.815Z,0
2017-09-30T20:59:50.530Z,0
2017-09-30T21:01:12.716Z,0
2017-09-30T21:02:34.935Z,0
2017-09-30T21:03:57.425Z,0
2017-09-30T21:05:19.948Z,0
2017-09-30T21:06:42.446Z,0
2017-09-30T21:08:05.075Z,0
2017-09-30T21:09:26.691Z,0
2017-09-30T21:10:49.506Z,0
2017-09-30T21:12:11.955Z,0
2017-09-30T21:13:34.438Z,0
2017-09-30T21:14:56.598Z,0
2017-09-30T21:16:18.441Z,0
2017-09-30T21:17:40.415Z,0
2017-09-30T21:19:02.927Z,0
2017-09-30T21:20:25.405Z,0
2017-09-30T21:21:47.557Z,0
2017-09-30T21:23:10.124Z,0
2017-09-30T21:24:32.666Z,0
2017-09-30T21:25:55.247Z,0
2017-09-30T21:27:17.896Z,0
2017-09-30T21:28:40.121Z,0
2017-09-30T21:30:01.959Z,0
2017-09-30T21:31:24.255Z,0
2017-09-30T21:32:46.773Z,0
2017-09-30T21:34:08.619Z,0
2017-09-30T21:35:30.131Z,0
2017-09-30T21:36:51.975Z,0
2017-09-30T21:38:14.124Z,0
2017-09-30T21:39:35.979Z,0
2017-09-30T21:40:58.464Z,0
2017-09-30T21:42:20.697Z,0
2017-09-30T21:43:43.284Z,0
2017-09-30T21:45:05.762Z,0
2017-09-30T21:46:27.264Z,0
2017-09-30T21:47:49.735Z,0
2017-09-30T21:49:12.189Z,0
2017-09-30T21:50:34.342Z,0
2017-09-30T21:51:55.841Z,0
2017-09-30T21:53:17.664Z,0
2017-09-30T21:54:39.861Z,0
2017-09-30T21:56:02.377Z,0
2017-09-30T21:57:24.838Z,0
2017-09-30T21:58:46.673Z,0
2017-09-30T22:00:09.104Z,0
2017-09-30T22:01:31.676Z,0
2017-09-30T22:02:54.131Z,0
2017-09-30T22:04:15.997Z,0
2017-09-30T22:05:38.466Z,0
2017-09-30T22:07:00.934Z,0
2017-09-30T22:08:22.772Z,0
2017-09-30T22:09:45.433Z,0
2017-09-30T22:11:07.580Z,0
2017-09-30T22:12:30.164Z,0
2017-09-30T22:13:52.624Z,0
2017-09-30T22:15:15.085Z,0
2017-09-30T22:16:37.581Z,0
2017-09-30T22:17:59.794Z,0
2017-09-30T22:19:22.259Z,0
2017-09-30T22:20:44.432Z,0
2017-09-30T22:22:06.967Z,0
2017-09-30T22:23:29.495Z,0
2017-09-30T22:24:51.375Z,0
2017-09-30T22:26:13.603Z,0
2017-09-30T22:27:35.906Z,0
2017-09-30T22:28:57.727Z,0
2017-09-30T22:30:20.310Z,0
2017-09-30T22:31:42.467Z,0
2017-09-30T22:33:04.349Z,0
2017-09-30T22:34:26.206Z,0
2017-09-30T22:35:48.348Z,0
2017-09-30T22:37:10.181Z,0
2017-09-30T22:38:32.677Z,0
2017-09-30T22:39:54.535Z,0
2017-09-30T22:41:16.046Z,0
2017-09-30T22:42:37.850Z,0
2017-09-30T22:44:00.086Z,0
2017-09-30T22:45:21.905Z,0
2017-09-30T22:46:43.724Z,0
2017-09-30T22:48:05.963Z,0
2017-09-30T22:49:28.076Z,0
2017-09-30T22:50:50.357Z,0
2017-09-30T22:52:12.827Z,0
2017-09-30T22:53:34.982Z,0
2017-09-30T22:54:57.490Z,0
2017-09-30T22:56:19.635Z,0
2017-09-30T22:57:41.756Z,0
2017-09-30T22:59:04.275Z,0
2017-09-30T23:00:27.095Z,0
2017-09-30T23:01:49.236Z,0
2017-09-30T23:03:11.764Z,0
2017-09-30T23:04:33.696Z,0
2017-09-30T23:05:56.168Z,0
2017-09-30T23:07:18.315Z,0
2017-09-30T23:08:40.129Z,0
2017-09-30T23:10:02.301Z,0
2017-09-30T23:11:24.465Z,0
2017-09-30T23:12:46.281Z,0
2017-09-30T23:14:07.798Z,0
2017-09-30T23:15:29.736Z,0
2017-09-30T23:16:51.647Z,0
2017-09-30T23:18:13.495Z,0
2017-09-30T23:19:36.049Z,0
2017-09-30T23:20:58.515Z,0
2017-09-30T23:22:20.651Z,0
2017-09-30T23:23:42.782Z,0
2017-09-30T23:25:04.273Z,0
2017-09-30T23:26:26.099Z,0
2017-09-30T23:27:47.975Z,0
2017-09-30T23:29:09.485Z,0
2017-09-30T23:30:31.703Z,0
2017-09-30T23:31:53.531Z,0
2017-09-30T23:33:15.406Z,0
2017-09-30T23:34:37.886Z,0
2017-09-30T23:36:00.063Z,0
2017-09-30T23:37:22.206Z,0
2017-09-30T23:38:44.705Z,0
2017-09-30T23:40:06.192Z,0
2017-09-30T23:41:27.736Z,0
2017-09-30T23:42:49.914Z,0
2017-09-30T23:44:12.026Z,0
2017-09-30T23:45:34.648Z,0
2017-09-30T23:46:57.114Z,0
2017-09-30T23:48:18.633Z,0
2017-09-30T23:49:40.890Z,0
2017-09-30T23:51:03.358Z,0
2017-09-30T23:52:25.539Z,0
2017-09-30T23:53:47.364Z,0
2017-09-30T23:55:09.852Z,0
2017-09-30T23:56:31.696Z,0
2017-09-30T23:57:53.843Z,0
2017-09-30T23:59:15.997Z,0
